Time;durP1;ratioP1;P1;durP2;ratioP2;P2;SDS_P1;SDS_P2;PMS_P1;PMS_P2;Temp;Humidity;BMP_temperature;BMP_pressure;BME280_temperature;BME280_humidity;BME280_pressure;Samples;Min_cycle;Max_cycle;Signal;HPM_P1;HPM_P2
2022/07/14 00:01:04;;;;;;;4.53;1.77;;;;;;;24.52;55.24;100528.50;5090032;28;20182;-62
2022/07/14 00:03:30;;;;;;;4.30;1.63;;;;;;;24.52;55.69;100523.56;5089431;28;20205;-62
2022/07/14 00:05:55;;;;;;;5.90;1.70;;;;;;;24.52;55.43;100517.81;5090048;28;20202;-62
2022/07/14 00:08:21;;;;;;;2.60;1.60;;;;;;;24.53;55.14;100518.63;5091226;28;20226;-62
2022/07/14 00:10:46;;;;;;;3.10;1.90;;;;;;;24.54;55.59;100517.41;5091120;28;20170;-62
2022/07/14 00:13:11;;;;;;;3.20;1.83;;;;;;;24.53;55.49;100519.44;5091018;28;20204;-62
2022/07/14 00:15:37;;;;;;;3.23;1.70;;;;;;;24.52;55.03;100522.75;5090953;28;20178;-62
2022/07/14 00:18:02;;;;;;;5.53;1.80;;;;;;;24.52;55.82;100526.47;5090853;28;20231;-62
2022/07/14 00:20:28;;;;;;;3.30;1.47;;;;;;;24.50;55.16;100528.97;5090742;28;20178;-62
2022/07/14 00:22:56;;;;;;;3.50;1.80;;;;;;;24.47;55.41;100526.06;5090780;28;20190;-62
2022/07/14 00:25:22;;;;;;;3.07;1.80;;;;;;;24.48;55.39;100527.72;5089884;28;20177;-62
2022/07/14 00:27:48;;;;;;;2.50;1.40;;;;;;;24.48;55.87;100528.53;5090867;28;20428;-63
2022/07/14 00:30:13;;;;;;;2.53;1.43;;;;;;;24.48;55.43;100531.41;5090356;28;20428;-63
2022/07/14 00:32:39;;;;;;;4.93;1.87;;;;;;;24.48;55.35;100531.41;5090603;28;20557;-63
2022/07/14 00:35:05;;;;;;;5.13;2.00;;;;;;;24.49;55.06;100529.38;5090865;28;20174;-63
2022/07/14 00:37:30;;;;;;;4.47;1.80;;;;;;;24.46;55.12;100524.41;5090837;28;20261;-63
2022/07/14 00:39:56;;;;;;;3.77;1.80;;;;;;;24.46;55.77;100515.75;5091055;28;20525;-63
2022/07/14 00:42:35;;;;;;;3.17;1.70;;;;;;;24.46;55.53;100518.63;5090712;28;20198;-62
2022/07/14 00:45:09;;;;;;;3.83;1.73;;;;;;;24.43;54.94;100513.72;5093822;28;20243;-62
2022/07/14 00:47:34;;;;;;;3.50;1.63;;;;;;;24.42;54.89;100510.00;5094842;28;20404;-62
2022/07/14 00:50:00;;;;;;;6.67;1.63;;;;;;;24.41;54.52;100505.47;5094408;28;20415;-63
2022/07/14 00:52:27;;;;;;;3.00;1.60;;;;;;;24.39;54.39;100507.94;5092697;28;20215;-63
2022/07/14 00:54:52;;;;;;;6.77;1.97;;;;;;;24.36;54.41;100502.16;5092765;28;20473;-63
2022/07/14 00:57:18;;;;;;;3.30;1.73;;;;;;;24.37;54.42;100504.66;5092745;28;20810;-62
2022/07/14 00:59:44;;;;;;;2.50;1.33;;;;;;;24.38;54.73;100499.72;5092672;28;20178;-62
2022/07/14 01:02:10;;;;;;;4.40;2.03;;;;;;;24.40;54.50;100503.00;5092721;28;20205;-62
2022/07/14 01:04:35;;;;;;;3.00;1.77;;;;;;;24.42;54.55;100512.03;5092546;28;20420;-62
2022/07/14 01:07:00;;;;;;;4.40;2.07;;;;;;;24.41;54.47;100502.59;5094222;28;20630;-62
2022/07/14 01:09:26;;;;;;;2.93;1.43;;;;;;;24.42;54.43;100510.00;5094342;28;20233;-63
2022/07/14 01:11:51;;;;;;;3.20;1.37;;;;;;;24.40;54.38;100512.47;5094670;28;20166;-63
2022/07/14 01:14:17;;;;;;;4.33;1.70;;;;;;;24.42;54.22;100518.66;5094143;28;20249;-63
2022/07/14 01:16:42;;;;;;;3.23;1.40;;;;;;;24.40;54.29;100511.66;5094278;28;20170;-63
2022/07/14 01:19:08;;;;;;;3.67;1.80;;;;;;;24.39;53.95;100507.13;5094376;28;20315;-63
2022/07/14 01:21:34;;;;;;;2.90;1.37;;;;;;;24.38;54.14;100500.50;5094041;28;20185;-62
2022/07/14 01:23:59;;;;;;;6.07;1.70;;;;;;;24.39;54.37;100505.03;5093733;28;20427;-62
2022/07/14 01:26:25;;;;;;;2.23;1.30;;;;;;;24.40;54.44;100498.06;5093039;28;20582;-62
2022/07/14 01:28:50;;;;;;;4.23;1.50;;;;;;;24.40;54.33;100497.22;5093716;28;20182;-62
2022/07/14 01:31:16;;;;;;;3.40;1.40;;;;;;;24.40;54.19;100503.81;5094183;28;20179;-63
2022/07/14 01:33:41;;;;;;;4.60;1.80;;;;;;;24.38;54.44;100503.41;5093941;28;20178;-63
2022/07/14 01:36:07;;;;;;;2.60;1.60;;;;;;;24.39;54.43;100512.91;5093947;28;20182;-63
2022/07/14 01:38:32;;;;;;;3.90;1.70;;;;;;;24.38;54.37;100494.75;5093875;28;20679;-62
2022/07/14 01:40:57;;;;;;;7.57;1.90;;;;;;;24.38;54.46;100491.84;5093914;28;20654;-62
2022/07/14 01:43:23;;;;;;;3.50;1.70;;;;;;;24.37;54.50;100496.00;5094008;28;20649;-62
2022/07/14 01:45:49;;;;;;;2.50;1.40;;;;;;;24.38;54.32;100491.06;5093919;28;20174;-62
2022/07/14 01:48:14;;;;;;;7.53;2.10;;;;;;;24.37;54.38;100484.44;5093644;28;20174;-62
2022/07/14 01:50:39;;;;;;;3.83;1.83;;;;;;;24.36;54.31;100500.13;5093664;28;20697;-62
2022/07/14 01:53:05;;;;;;;6.60;1.80;;;;;;;24.36;54.48;100503.00;5093647;28;20171;-62
2022/07/14 01:55:30;;;;;;;2.90;1.80;;;;;;;24.33;53.47;100492.28;5092774;28;20537;-62
2022/07/14 01:57:56;;;;;;;3.67;1.87;;;;;;;24.29;53.71;100491.47;5093434;28;20182;-62
2022/07/14 02:00:21;;;;;;;3.87;1.50;;;;;;;24.27;53.76;100501.78;5093142;28;20181;-62
2022/07/14 02:02:47;;;;;;;2.30;1.47;;;;;;;24.25;53.86;100499.31;5093329;28;20249;-62
2022/07/14 02:05:12;;;;;;;3.40;1.50;;;;;;;24.26;53.59;100497.25;5093765;28;20185;-62
2022/07/14 02:07:38;;;;;;;5.50;2.00;;;;;;;24.26;53.44;100498.09;5093280;28;20198;-62
2022/07/14 02:12:48;;;;;;;3.77;1.60;;;;;;;24.29;54.10;100491.47;5092929;28;20178;-63
2022/07/14 02:15:13;;;;;;;5.13;1.73;;;;;;;24.28;53.89;100491.91;5091479;28;20820;-63
2022/07/14 02:17:38;;;;;;;3.40;1.50;;;;;;;24.28;54.05;100484.03;5091079;28;20189;-63
2022/07/14 02:20:05;;;;;;;4.43;1.60;;;;;;;24.29;54.14;100484.88;5090773;28;20178;-63
2022/07/14 02:22:30;;;;;;;5.70;1.50;;;;;;;24.29;54.07;100491.47;5090347;28;20673;-63
2022/07/14 02:24:55;;;;;;;6.80;1.60;;;;;;;24.29;54.11;100490.66;5091498;28;20404;-63
2022/07/14 02:27:21;;;;;;;4.00;1.80;;;;;;;24.30;54.45;100486.53;5090772;28;20171;-63
2022/07/14 02:29:47;;;;;;;3.43;1.63;;;;;;;24.29;54.12;100488.56;5091256;28;20186;-63
2022/07/14 02:32:12;;;;;;;3.03;1.50;;;;;;;24.25;53.78;100479.13;5092433;28;20181;-62
2022/07/14 02:34:37;;;;;;;5.27;1.97;;;;;;;24.26;53.96;100485.69;5092944;28;20174;-62
2022/07/14 02:37:03;;;;;;;4.27;1.70;;;;;;;24.25;53.97;100487.78;5092720;28;20174;-62
2022/07/14 02:39:29;;;;;;;3.80;1.77;;;;;;;24.20;53.63;100493.97;5092908;28;20625;-62
2022/07/14 02:41:54;;;;;;;3.87;1.90;;;;;;;24.20;53.53;100491.09;5092521;28;20200;-62
2022/07/14 02:44:19;;;;;;;3.53;1.87;;;;;;;24.20;54.03;100488.22;5092638;28;20648;-62
2022/07/14 02:46:45;;;;;;;2.60;1.60;;;;;;;24.22;54.17;100494.38;5092596;28;20174;-63
2022/07/14 02:49:10;;;;;;;3.77;1.60;;;;;;;24.22;54.02;100505.91;5092576;28;20185;-62
2022/07/14 02:51:36;;;;;;;2.83;1.70;;;;;;;24.21;54.17;100492.72;5092391;28;20194;-62
2022/07/14 02:54:01;;;;;;;3.57;1.53;;;;;;;24.22;54.28;100503.03;5092620;28;20163;-62
2022/07/14 02:56:27;;;;;;;4.70;1.80;;;;;;;24.23;54.11;100503.88;5092615;28;20232;-62
2022/07/14 02:58:52;;;;;;;4.53;1.60;;;;;;;24.23;54.25;100501.78;5092239;28;20545;-62
2022/07/14 03:01:18;;;;;;;4.00;1.57;;;;;;;24.23;54.16;100496.00;5092364;28;20560;-62
2022/07/14 03:03:43;;;;;;;3.43;1.97;;;;;;;24.23;54.42;100498.09;5092396;28;20247;-62
2022/07/14 03:06:15;;;;;;;5.17;1.93;;;;;;;24.24;54.39;100499.72;5090921;28;20194;-62
2022/07/14 03:08:40;;;;;;;3.30;1.70;;;;;;;24.21;53.85;100495.63;5091566;28;20314;-62
2022/07/14 03:11:06;;;;;;;4.43;1.90;;;;;;;24.21;54.04;100492.72;5091896;28;20511;-62
2022/07/14 03:13:31;;;;;;;4.13;1.83;;;;;;;24.21;53.97;100497.66;5092008;28;20170;-62
2022/07/14 03:15:58;;;;;;;3.93;1.97;;;;;;;24.20;53.90;100493.97;5091804;28;20270;-62
2022/07/14 03:18:24;;;;;;;4.77;1.90;;;;;;;24.18;52.72;100487.78;5090004;28;20167;-62
2022/07/14 03:20:51;;;;;;;2.63;1.50;;;;;;;24.17;54.02;100485.31;5090257;28;20866;-62
2022/07/14 03:23:16;;;;;;;3.20;1.53;;;;;;;24.16;53.63;100486.53;5089406;28;20445;-62
2022/07/14 03:25:42;;;;;;;5.10;1.93;;;;;;;24.14;53.69;100478.28;5089994;28;20474;-62
2022/07/14 03:28:08;;;;;;;5.97;1.93;;;;;;;24.15;53.87;100484.91;5088847;28;20561;-62
2022/07/14 03:30:33;;;;;;;2.30;1.50;;;;;;;24.16;53.98;100480.78;5088480;28;20698;-63
2022/07/14 03:32:59;;;;;;;3.50;2.13;;;;;;;24.15;53.97;100482.84;5089371;28;20562;-62
2022/07/14 03:35:24;;;;;;;3.53;1.90;;;;;;;24.16;53.80;100481.63;5090370;28;20166;-63
2022/07/14 03:37:50;;;;;;;3.57;1.83;;;;;;;24.17;54.04;100482.41;5090359;28;20194;-62
2022/07/14 03:40:15;;;;;;;2.27;1.50;;;;;;;24.17;54.11;100482.41;5089849;28;20228;-62
2022/07/14 03:42:40;;;;;;;3.57;1.67;;;;;;;24.18;54.34;100486.97;5090310;28;20264;-63
2022/07/14 03:45:06;;;;;;;4.10;1.70;;;;;;;24.17;54.18;100486.13;5091502;28;20340;-63
2022/07/14 03:47:32;;;;;;;3.50;1.77;;;;;;;24.17;54.07;100485.31;5091468;28;20182;-63
2022/07/14 03:49:58;;;;;;;2.83;1.50;;;;;;;24.17;54.19;100482.41;5091409;28;20185;-62
2022/07/14 03:52:24;;;;;;;3.20;1.60;;;;;;;24.15;53.73;100479.13;5091549;28;20178;-62
2022/07/14 03:54:49;;;;;;;5.00;1.73;;;;;;;24.12;53.57;100472.13;5091159;28;20435;-62
2022/07/14 03:57:15;;;;;;;2.97;1.90;;;;;;;24.13;54.10;100479.53;5091258;28;20209;-62
2022/07/14 03:59:40;;;;;;;4.37;2.03;;;;;;;24.13;53.80;100484.50;5091244;28;20618;-62
2022/07/14 04:02:11;;;;;;;2.93;1.73;;;;;;;24.08;53.51;100500.16;5091151;28;20212;-62
2022/07/14 04:04:37;;;;;;;3.60;1.93;;;;;;;24.07;53.48;100500.56;5091033;28;20175;-63
2022/07/14 04:07:04;;;;;;;4.13;2.00;;;;;;;24.05;53.34;100505.94;5091171;28;20460;-63
2022/07/14 04:09:29;;;;;;;5.60;2.20;;;;;;;24.06;53.26;100510.47;5090764;28;20651;-63
2022/07/14 04:11:55;;;;;;;5.33;1.87;;;;;;;24.04;53.40;100498.53;5091244;28;20454;-63
2022/07/14 04:14:20;;;;;;;3.47;1.90;;;;;;;24.06;53.31;100493.16;5090269;28;20185;-63
2022/07/14 04:16:46;;;;;;;7.03;2.30;;;;;;;24.08;53.54;100502.25;5089590;28;20286;-63
2022/07/14 04:19:11;;;;;;;2.80;1.60;;;;;;;24.09;53.74;100498.91;5089144;28;20186;-63
2022/07/14 04:21:36;;;;;;;3.70;1.83;;;;;;;24.09;53.76;100486.56;5089212;28;20175;-63
2022/07/14 04:24:03;;;;;;;3.93;1.77;;;;;;;24.09;53.47;100498.09;5089241;28;20174;-63
2022/07/14 04:26:29;;;;;;;3.40;2.03;;;;;;;24.09;53.80;100490.25;5089528;28;20174;-63
2022/07/14 04:28:54;;;;;;;4.30;1.90;;;;;;;24.09;53.74;100501.78;5090050;28;20930;-62
2022/07/14 04:31:20;;;;;;;4.73;2.10;;;;;;;24.10;53.86;100500.59;5090853;28;20220;-62
2022/07/14 04:33:46;;;;;;;4.03;2.20;;;;;;;24.11;54.10;100501.38;5090739;28;20178;-62
2022/07/14 04:36:11;;;;;;;2.67;1.40;;;;;;;24.09;53.21;100510.44;5091207;28;20167;-62
2022/07/14 04:38:37;;;;;;;3.93;2.00;;;;;;;24.09;53.42;100498.09;5090714;28;20170;-62
2022/07/14 04:41:02;;;;;;;2.83;1.70;;;;;;;24.10;53.50;100506.34;5090942;28;20519;-62
2022/07/14 04:43:28;;;;;;;5.13;2.33;;;;;;;24.11;53.51;100501.38;5090637;28;20610;-62
2022/07/14 04:45:54;;;;;;;3.17;1.70;;;;;;;24.10;53.39;100502.63;5090800;28;20169;-62
2022/07/14 04:48:19;;;;;;;4.20;2.00;;;;;;;24.14;53.65;100501.38;5091108;28;20561;-62
2022/07/14 04:53:28;;;;;;;3.40;1.70;;;;;;;24.14;53.69;100500.56;5090794;28;20274;-66
2022/07/14 04:55:54;;;;;;;3.10;1.87;;;;;;;24.16;53.76;100498.91;5090643;28;20428;-62
2022/07/14 04:58:21;;;;;;;4.47;1.93;;;;;;;24.17;53.60;100506.34;5090686;28;20202;-62
2022/07/14 05:00:46;;;;;;;3.77;1.53;;;;;;;24.18;53.75;100501.41;5090574;28;20890;-62
2022/07/14 05:03:12;;;;;;;4.77;1.90;;;;;;;24.16;53.88;100501.81;5089188;28;20497;-62
2022/07/14 05:05:37;;;;;;;5.33;2.10;;;;;;;24.15;53.53;100511.72;5090274;28;20201;-62
2022/07/14 05:08:03;;;;;;;2.97;1.67;;;;;;;24.15;53.58;100508.81;5090470;28;20222;-62
2022/07/14 05:10:28;;;;;;;3.70;1.90;;;;;;;24.16;53.63;100498.09;5090358;28;20201;-62
2022/07/14 05:12:54;;;;;;;5.80;2.10;;;;;;;24.15;53.62;100508.81;5090518;28;20566;-62
2022/07/14 05:15:20;;;;;;;4.17;1.67;;;;;;;24.16;54.00;100500.97;5090425;28;20649;-62
2022/07/14 05:17:45;;;;;;;4.47;2.10;;;;;;;24.15;53.88;100508.81;5090361;28;20174;-62
2022/07/14 05:20:11;;;;;;;3.80;1.57;;;;;;;24.16;53.52;100493.16;5089881;28;20421;-62
2022/07/14 05:22:37;;;;;;;3.30;1.60;;;;;;;24.16;53.61;100495.19;5090597;28;20206;-62
2022/07/14 05:25:10;;;;;;;3.77;2.03;;;;;;;24.14;53.59;100494.81;5090180;28;20185;-62
2022/07/14 05:27:36;;;;;;;4.03;1.90;;;;;;;24.14;53.71;100501.38;5088897;28;20464;-62
2022/07/14 05:30:06;;;;;;;2.80;1.77;;;;;;;24.13;53.65;100496.84;5088242;28;20457;-61
2022/07/14 05:32:32;;;;;;;4.00;2.20;;;;;;;24.13;53.88;100493.97;5091082;28;20508;-61
2022/07/14 05:34:58;;;;;;;3.27;2.30;;;;;;;24.12;53.85;100497.25;5091960;28;20421;-61
2022/07/14 05:37:24;;;;;;;5.80;2.17;;;;;;;24.11;53.96;100502.22;5091881;28;20231;-61
2022/07/14 05:39:49;;;;;;;6.03;2.07;;;;;;;24.11;53.93;100502.22;5092108;28;20415;-61
2022/07/14 05:42:15;;;;;;;4.83;2.33;;;;;;;24.13;54.15;100493.16;5092638;28;20669;-61
2022/07/14 05:44:40;;;;;;;3.50;1.73;;;;;;;24.06;54.09;100494.00;5093674;28;20649;-61
2022/07/14 05:47:06;;;;;;;4.77;2.23;;;;;;;24.04;54.27;100502.22;5093757;28;20185;-61
2022/07/14 05:49:31;;;;;;;3.70;1.70;;;;;;;24.04;54.26;100493.56;5093651;28;20190;-61
2022/07/14 05:51:56;;;;;;;3.37;1.93;;;;;;;24.06;54.38;100498.91;5093709;28;20182;-61
2022/07/14 05:54:22;;;;;;;4.20;1.90;;;;;;;24.07;54.66;100489.03;5093787;28;20174;-62
2022/07/14 05:56:47;;;;;;;3.50;2.00;;;;;;;24.09;54.62;100480.81;5093715;28;20200;-62
2022/07/14 05:59:13;;;;;;;3.33;1.80;;;;;;;24.09;54.54;100481.59;5093402;28;20182;-62
2022/07/14 06:01:38;;;;;;;3.80;2.07;;;;;;;24.06;54.70;100482.44;5093351;28;20182;-62
2022/07/14 06:04:04;;;;;;;3.43;1.90;;;;;;;24.05;54.79;100485.75;5093135;28;20605;-62
2022/07/14 06:06:29;;;;;;;2.97;1.87;;;;;;;24.06;54.39;100494.00;5093224;28;20217;-62
2022/07/14 06:08:55;;;;;;;5.00;2.10;;;;;;;24.07;54.48;100483.25;5093189;28;20238;-62
2022/07/14 06:11:21;;;;;;;3.23;1.80;;;;;;;24.09;54.54;100484.50;5093179;28;20175;-62
2022/07/14 06:13:46;;;;;;;5.10;1.80;;;;;;;24.10;54.46;100476.66;5093377;28;20549;-62
2022/07/14 06:16:12;;;;;;;5.77;2.03;;;;;;;24.09;54.10;100481.59;5092569;28;20190;-62
2022/07/14 06:18:37;;;;;;;4.37;2.30;;;;;;;24.09;54.27;100469.25;5090515;28;20217;-62
2022/07/14 06:21:09;;;;;;;4.50;2.37;;;;;;;24.09;54.14;100467.19;5089694;28;20189;-62
2022/07/14 06:23:35;;;;;;;4.30;1.90;;;;;;;24.09;53.97;100461.41;5091054;28;20191;-62
2022/07/14 06:26:08;;;;;;;5.20;1.97;;;;;;;24.01;53.78;100462.69;5090877;28;20409;-62
2022/07/14 06:28:34;;;;;;;4.63;2.10;;;;;;;24.04;53.57;100458.16;5089558;28;20178;-61
2022/07/14 06:31:00;;;;;;;3.40;2.00;;;;;;;23.94;54.24;100448.25;5090366;28;20416;-61
2022/07/14 06:33:25;;;;;;;3.60;2.17;;;;;;;24.00;54.22;100455.28;5093288;28;20437;-62
2022/07/14 06:35:51;;;;;;;5.73;2.20;;;;;;;24.03;54.11;100457.31;5092858;28;20568;-62
2022/07/14 06:38:17;;;;;;;6.60;1.80;;;;;;;24.04;54.08;100447.41;5092996;28;20186;-61
2022/07/14 06:40:42;;;;;;;6.97;2.17;;;;;;;23.98;54.37;100451.97;5092674;28;20249;-61
2022/07/14 06:43:08;;;;;;;3.57;1.57;;;;;;;24.00;53.58;100455.28;5092174;28;20452;-61
2022/07/14 06:45:34;;;;;;;5.20;1.80;;;;;;;24.00;53.96;100448.66;5092023;28;20246;-62
2022/07/14 06:47:59;;;;;;;7.03;2.57;;;;;;;24.02;54.01;100451.94;5092550;28;20190;-61
2022/07/14 06:50:25;;;;;;;4.07;2.10;;;;;;;23.97;53.52;100449.47;5092579;28;20246;-62
2022/07/14 06:52:50;;;;;;;7.77;2.30;;;;;;;23.96;53.82;100450.72;5092287;28;20186;-61
2022/07/14 06:55:17;;;;;;;6.87;2.13;;;;;;;24.01;53.12;100456.06;5092159;28;20526;-61
2022/07/14 06:57:42;;;;;;;4.03;1.97;;;;;;;24.01;53.56;100448.25;5092568;28;20518;-61
2022/07/14 07:00:08;;;;;;;3.73;1.97;;;;;;;24.04;53.36;100453.19;5092588;28;20405;-61
2022/07/14 07:02:37;;;;;;;3.60;1.90;;;;;;;24.03;53.37;100447.84;5092404;28;20289;-62
2022/07/14 07:07:48;;;;;;;5.67;2.00;;;;;;;24.04;53.52;100449.50;5091873;28;20439;-62
2022/07/14 07:10:13;;;;;;;9.67;2.10;;;;;;;24.08;52.92;100451.13;5092064;28;20417;-62
2022/07/14 07:12:39;;;;;;;5.43;1.70;;;;;;;24.09;52.70;100444.09;5092100;28;20636;-62
2022/07/14 07:15:05;;;;;;;4.80;1.67;;;;;;;24.09;52.36;100438.34;5092290;28;20175;-62
2022/07/14 07:17:30;;;;;;;3.83;1.97;;;;;;;24.11;52.08;100441.66;5091485;28;20204;-62
2022/07/14 07:19:56;;;;;;;4.27;1.60;;;;;;;24.12;52.19;100445.34;5091726;28;20436;-62
2022/07/14 07:22:21;;;;;;;3.37;1.93;;;;;;;24.11;52.50;100444.53;5090856;28;20263;-62
2022/07/14 07:24:47;;;;;;;5.30;1.93;;;;;;;24.15;52.66;100439.56;5092057;28;20572;-62
2022/07/14 07:27:12;;;;;;;4.40;1.60;;;;;;;24.16;52.71;100441.22;5091781;28;20216;-62
2022/07/14 07:29:37;;;;;;;2.50;1.60;;;;;;;24.18;52.88;100441.63;5091237;28;20182;-62
2022/07/14 07:32:03;;;;;;;5.83;1.90;;;;;;;24.21;52.88;100434.19;5089885;28;20178;-62
2022/07/14 07:34:29;;;;;;;4.80;1.80;;;;;;;24.23;52.23;100429.66;5090249;28;20174;-62
2022/07/14 07:36:54;;;;;;;6.50;2.37;;;;;;;24.28;52.31;100434.19;5088426;28;20174;-62
2022/07/14 07:39:19;;;;;;;4.53;2.00;;;;;;;24.28;51.91;100432.09;5089998;28;20656;-62
2022/07/14 07:41:45;;;;;;;5.77;1.73;;;;;;;24.32;51.73;100437.84;5090013;28;20214;-62
2022/07/14 07:44:10;;;;;;;6.80;1.70;;;;;;;24.37;51.38;100423.00;5090208;28;20179;-62
2022/07/14 07:46:36;;;;;;;2.90;1.80;;;;;;;24.38;51.01;100422.59;5091382;28;20181;-62
2022/07/14 07:49:01;;;;;;;2.53;1.63;;;;;;;24.41;50.43;100418.88;5090791;28;20174;-62
2022/07/14 07:51:27;;;;;;;4.37;2.10;;;;;;;24.42;50.96;100413.91;5090015;28;20593;-62
2022/07/14 07:53:52;;;;;;;9.60;1.77;;;;;;;24.46;49.84;100415.56;5089701;28;20182;-62
2022/07/14 07:56:17;;;;;;;5.37;2.00;;;;;;;24.47;49.91;100407.69;5089318;28;20182;-62
2022/07/14 07:58:43;;;;;;;3.20;1.67;;;;;;;24.47;50.09;100405.66;5088888;28;20181;-62
2022/07/14 08:01:09;;;;;;;2.70;1.70;;;;;;;24.46;50.50;100404.00;5088881;28;20568;-62
2022/07/14 08:03:34;;;;;;;3.03;1.83;;;;;;;24.49;50.37;100402.34;5089612;28;20201;-62
2022/07/14 08:06:00;;;;;;;5.93;2.30;;;;;;;24.50;50.13;100399.06;5089391;28;20198;-62
2022/07/14 08:08:25;;;;;;;3.30;2.00;;;;;;;24.61;49.46;100404.78;5089538;28;20707;-62
2022/07/14 08:10:51;;;;;;;5.80;1.70;;;;;;;24.58;49.57;100400.69;5089476;28;20175;-62
2022/07/14 08:13:16;;;;;;;4.33;1.70;;;;;;;24.62;49.39;100407.25;5089675;28;20193;-62
2022/07/14 08:15:42;;;;;;;6.03;2.20;;;;;;;24.66;48.49;100395.69;5089657;28;20169;-62
2022/07/14 08:18:07;;;;;;;3.60;1.63;;;;;;;24.75;48.56;100396.06;5089530;28;20174;-62
2022/07/14 08:20:33;;;;;;;3.40;2.10;;;;;;;24.80;48.45;100387.78;5089366;28;20642;-62
2022/07/14 08:22:59;;;;;;;4.50;2.10;;;;;;;24.74;48.58;100386.56;5089494;28;20788;-62
2022/07/14 08:25:24;;;;;;;3.07;1.73;;;;;;;24.65;49.30;100383.34;5088815;28;20424;-62
2022/07/14 08:27:50;;;;;;;5.03;1.90;;;;;;;24.75;49.25;100388.22;5089387;28;20182;-62
2022/07/14 08:30:15;;;;;;;3.40;1.70;;;;;;;24.82;49.32;100381.56;5089462;28;20619;-62
2022/07/14 08:32:44;;;;;;;3.80;1.90;;;;;;;24.80;49.10;100384.06;5089313;28;20569;-62
2022/07/14 08:35:11;;;;;;;5.07;1.90;;;;;;;24.79;49.12;100380.34;5090422;28;20220;-62
2022/07/14 08:37:37;;;;;;;6.07;2.40;;;;;;;24.85;49.03;100386.50;5090246;28;20444;-62
2022/07/14 08:40:13;;;;;;;7.40;2.20;;;;;;;24.83;48.79;100380.34;5088840;28;20462;-62
2022/07/14 08:42:42;;;;;;;5.00;1.70;;;;;;;24.81;49.31;100377.88;5088767;28;20205;-62
2022/07/14 08:45:08;;;;;;;3.90;2.00;;;;;;;24.92;48.48;100369.97;5089219;28;20427;-62
2022/07/14 08:47:41;;;;;;;4.00;2.13;;;;;;;24.96;48.40;100364.97;5089592;28;20444;-62
2022/07/14 08:50:11;;;;;;;3.27;2.23;;;;;;;24.96;48.25;100359.22;5089445;28;20496;-61
2022/07/14 08:52:36;;;;;;;6.97;2.27;;;;;;;24.95;47.99;100360.47;5089100;28;20444;-61
2022/07/14 08:55:09;;;;;;;4.20;2.07;;;;;;;24.98;48.31;100356.69;5088177;28;20533;-61
2022/07/14 08:57:35;;;;;;;6.00;2.40;;;;;;;25.04;47.77;100354.19;5087936;28;20562;-61
2022/07/14 09:00:02;;;;;;;6.27;2.37;;;;;;;25.03;47.52;100347.59;5089101;28;20416;-61
2022/07/14 09:02:28;;;;;;;2.67;1.87;;;;;;;25.12;47.37;100347.94;5088828;28;20206;-61
2022/07/14 09:04:54;;;;;;;5.97;1.80;;;;;;;25.12;47.54;100342.16;5091566;28;20971;-61
2022/07/14 09:07:38;;;;;;;3.40;1.80;;;;;;;25.22;47.51;100346.19;5094359;28;20432;-61
2022/07/14 09:10:15;;;;;;;3.50;2.17;;;;;;;25.20;47.78;100340.88;5094627;28;20190;-62
2022/07/14 09:12:41;;;;;;;4.20;2.03;;;;;;;25.20;47.90;100340.88;5094378;28;20856;-62
2022/07/14 09:17:56;;;;;;;2.20;1.50;;;;;;;25.13;47.79;100343.00;5093263;28;20906;-61
2022/07/14 09:20:23;;;;;;;4.93;1.90;;;;;;;25.14;47.63;100333.88;5091299;28;20425;-62
2022/07/14 09:22:53;;;;;;;6.33;1.90;;;;;;;25.27;46.71;100332.16;5092429;28;20533;-61
2022/07/14 09:25:18;;;;;;;8.80;2.27;;;;;;;25.24;47.48;100327.19;5090619;28;20474;-61
2022/07/14 09:27:48;;;;;;;5.40;1.90;;;;;;;25.44;45.86;100322.47;5092107;28;20420;-62
2022/07/14 09:30:14;;;;;;;7.23;2.20;;;;;;;25.31;45.84;100312.72;5092893;28;20170;-62
2022/07/14 09:33:02;;;;;;;3.90;1.60;;;;;;;25.33;45.41;100316.00;5092613;28;20432;-62
2022/07/14 09:35:34;;;;;;;7.63;1.83;;;;;;;25.36;45.50;100317.19;5092753;28;20251;-62
2022/07/14 09:38:00;;;;;;;3.50;1.83;;;;;;;25.26;45.94;100310.28;5093431;28;20420;-62
2022/07/14 09:40:30;;;;;;;6.63;2.03;;;;;;;25.36;45.45;100312.25;5093857;28;20417;-62
2022/07/14 09:42:59;;;;;;;2.20;1.40;;;;;;;25.43;44.82;100312.19;5093764;28;20563;-62
2022/07/14 09:45:29;;;;;;;3.70;1.60;;;;;;;25.45;45.05;100312.59;5092460;28;20516;-62
2022/07/14 09:48:07;;;;;;;4.43;1.80;;;;;;;25.45;44.40;100309.69;5092278;28;20416;-62
2022/07/14 09:50:35;;;;;;;4.80;1.73;;;;;;;25.45;44.28;100312.59;5090760;28;20404;-62
2022/07/14 09:53:30;;;;;;;4.33;1.60;;;;;;;25.52;44.66;100309.63;5090761;28;20413;-62
2022/07/14 09:56:03;;;;;;;7.30;1.80;;;;;;;25.53;45.25;100314.13;5090860;28;20778;-62
2022/07/14 09:58:41;;;;;;;5.63;1.80;;;;;;;25.61;45.96;100312.00;5090727;28;20421;-62
2022/07/14 10:01:10;;;;;;;8.43;1.70;;;;;;;25.67;44.83;100310.28;5092446;28;20442;-62
2022/07/14 10:03:37;;;;;;;8.20;1.80;;;;;;;25.61;45.42;100309.09;5091865;28;20525;-62
2022/07/14 10:06:03;;;;;;;8.00;2.27;;;;;;;25.60;45.70;100308.31;5092417;28;20444;-62
2022/07/14 10:08:35;;;;;;;8.90;1.47;;;;;;;25.62;44.48;100305.78;5092083;28;20464;-62
2022/07/14 10:11:03;;;;;;;4.30;2.40;;;;;;;25.61;44.83;100292.59;5092350;28;20431;-61
2022/07/14 10:13:29;;;;;;;4.83;1.57;;;;;;;25.49;44.74;100290.22;5092106;28;20455;-62
2022/07/14 10:15:55;;;;;;;4.00;1.70;;;;;;;25.66;44.82;100294.19;5091457;28;20775;-63
2022/07/14 10:18:21;;;;;;;3.70;2.00;;;;;;;25.72;44.70;100293.28;5093175;28;20409;-63
2022/07/14 10:20:48;;;;;;;7.50;1.87;;;;;;;25.77;44.49;100289.94;5093257;28;20182;-63
2022/07/14 10:23:13;;;;;;;3.43;1.77;;;;;;;25.67;44.31;100290.88;5092940;28;20464;-62
2022/07/14 10:25:40;;;;;;;2.47;1.73;;;;;;;25.87;43.78;100286.09;5091658;28;20415;-62
2022/07/14 10:28:06;;;;;;;4.77;1.67;;;;;;;25.80;43.00;100277.47;5091241;28;20174;-63
2022/07/14 10:30:41;;;;;;;6.23;1.73;;;;;;;25.75;43.07;100274.25;5091449;28;20783;-62
2022/07/14 10:33:42;;;;;;;3.93;1.50;;;;;;;25.89;41.94;100271.19;5076211;28;20509;-63
2022/07/14 10:36:34;;;;;;;2.70;1.47;;;;;;;26.11;40.62;100273.41;5090328;28;20428;-63
2022/07/14 10:39:05;;;;;;;5.60;1.90;;;;;;;26.11;40.32;100263.91;5091222;28;20405;-63
2022/07/14 10:41:50;;;;;;;5.87;1.70;;;;;;;25.90;40.85;100262.06;5091598;28;20393;-63
2022/07/14 10:44:21;;;;;;;4.87;1.57;;;;;;;25.98;41.24;100260.75;5092443;28;20435;-63
2022/07/14 10:46:48;;;;;;;8.30;1.93;;;;;;;26.08;40.77;100258.97;5092660;28;20415;-63
2022/07/14 10:49:14;;;;;;;4.53;1.57;;;;;;;26.15;40.63;100253.91;5092646;28;20503;-63
2022/07/14 10:51:43;;;;;;;5.73;1.60;;;;;;;26.09;41.03;100254.84;5092593;28;20768;-63
2022/07/14 10:54:16;;;;;;;6.80;1.50;;;;;;;26.01;41.65;100248.34;5092430;28;21060;-63
2022/07/14 10:56:43;;;;;;;2.87;1.53;;;;;;;26.10;41.37;100254.38;5092675;28;20907;-63
2022/07/14 10:59:28;;;;;;;10.93;1.80;;;;;;;26.15;41.31;100251.00;5092416;28;20443;-63
2022/07/14 11:05:10;;;;;;;5.80;1.90;;;;;;;26.10;40.58;100236.22;5092197;28;20461;-63
2022/07/14 11:08:07;;;;;;;3.47;1.50;;;;;;;26.18;40.53;100235.69;5090328;28;20429;-63
2022/07/14 11:10:36;;;;;;;7.03;1.70;;;;;;;26.29;39.73;100230.56;5090302;28;20468;-63
2022/07/14 11:13:04;;;;;;;3.13;1.50;;;;;;;26.17;40.03;100230.31;5090085;28;20488;-63
2022/07/14 11:15:56;;;;;;;5.10;1.50;;;;;;;26.08;40.48;100216.41;5090181;28;20511;-63
2022/07/14 11:18:28;;;;;;;3.93;2.10;;;;;;;26.02;41.41;100220.19;5087937;28;20436;-63
2022/07/14 11:20:59;;;;;;;5.50;1.80;;;;;;;26.06;41.70;100224.69;5091150;28;20922;-63
2022/07/14 11:23:29;;;;;;;4.40;1.93;;;;;;;26.25;40.57;100217.41;5091828;28;20452;-63
2022/07/14 11:25:55;;;;;;;6.27;1.63;;;;;;;26.13;40.61;100215.91;5083113;28;20421;-63
2022/07/14 11:28:40;;;;;;;3.70;1.40;;;;;;;26.15;41.38;100215.47;5088241;28;20504;-63
2022/07/14 11:31:10;;;;;;;3.00;2.07;;;;;;;26.21;41.47;100211.66;5091308;28;20416;-63
2022/07/14 11:33:36;;;;;;;7.23;1.93;;;;;;;26.30;40.11;100205.34;5091810;28;20420;-63
2022/07/14 11:36:17;;;;;;;6.23;2.23;;;;;;;26.24;40.57;100201.28;5091405;28;20416;-63
2022/07/14 11:38:43;;;;;;;4.43;1.73;;;;;;;26.16;40.58;100197.69;5091656;28;20178;-63